Time;durP1;ratioP1;P1;durP2;ratioP2;P2;SDS_P1;SDS_P2;PMS_P1;PMS_P2;Temp;Humidity;BMP_temperature;BMP_pressure;BME280_temperature;BME280_humidity;BME280_pressure;Samples;Min_cycle;Max_cycle;Signal;HPM_P1;HPM_P2
2021/04/27 00:01:05;;;;;;;2.38;1.50;;;21.20;45.00;;;;;;5114376;27;20511;-38
2021/04/27 00:03:33;;;;;;;1.75;1.40;;;21.20;44.90;;;;;;5103270;28;20666;-38
2021/04/27 00:06:00;;;;;;;1.65;1.40;;;21.20;44.90;;;;;;5113890;27;20043;-38
2021/04/27 00:08:26;;;;;;;1.83;1.60;;;21.20;44.90;;;;;;5113187;28;20090;-38
2021/04/27 00:10:53;;;;;;;1.45;1.35;;;21.20;44.90;;;;;;5113353;28;20167;-39
2021/04/27 00:13:20;;;;;;;2.00;1.48;;;21.20;44.90;;;;;;5113166;28;20051;-39
2021/04/27 00:15:46;;;;;;;1.50;1.40;;;21.20;44.90;;;;;;5112715;28;20082;-38
2021/04/27 00:18:13;;;;;;;1.70;1.50;;;21.20;44.90;;;;;;5112837;28;20090;-38
2021/04/27 00:20:40;;;;;;;2.03;1.65;;;21.20;44.90;;;;;;5113557;28;20372;-38
2021/04/27 00:23:07;;;;;;;1.75;1.48;;;21.20;44.90;;;;;;5112050;28;20063;-38
2021/04/27 00:25:33;;;;;;;1.60;1.20;;;21.20;44.90;;;;;;5113904;27;20047;-39
2021/04/27 00:28:00;;;;;;;2.15;1.70;;;21.20;44.90;;;;;;5113578;28;20445;-39
2021/04/27 00:30:28;;;;;;;3.17;1.90;;;21.20;44.90;;;;;;5112166;28;20208;-38
2021/04/27 00:32:56;;;;;;;1.45;1.35;;;21.20;44.90;;;;;;5113101;28;20399;-38
2021/04/27 00:35:23;;;;;;;1.52;1.33;;;21.20;44.90;;;;;;5112069;28;20055;-38
2021/04/27 00:37:50;;;;;;;1.98;1.77;;;21.20;44.90;;;;;;5112755;28;20450;-39
2021/04/27 00:40:18;;;;;;;2.17;1.48;;;21.20;44.90;;;;;;5112929;28;20803;-38
2021/04/27 00:42:47;;;;;;;2.53;1.55;;;21.20;45.00;;;;;;5102902;28;20069;-38
2021/04/27 00:45:20;;;;;;;1.25;1.15;;;21.20;44.90;;;;;;5112083;28;20047;-38
2021/04/27 00:47:47;;;;;;;1.85;1.42;;;21.20;44.90;;;;;;5112484;28;20148;-39
2021/04/27 00:50:19;;;;;;;2.33;1.40;;;21.20;44.90;;;;;;5112717;28;20462;-39
2021/04/27 00:52:47;;;;;;;1.90;1.60;;;21.20;44.90;;;;;;5112450;28;20048;-38
2021/04/27 00:55:15;;;;;;;1.90;1.20;;;21.20;44.90;;;;;;5113153;28;20411;-38
2021/04/27 00:57:42;;;;;;;1.75;1.35;;;21.20;45.50;;;;;;5111770;28;20120;-38
2021/04/27 01:00:13;;;;;;;1.58;1.48;;;21.20;44.90;;;;;;5112064;28;20047;-38
2021/04/27 01:02:40;;;;;;;2.22;1.60;;;21.20;44.90;;;;;;5112391;27;20051;-39
2021/04/27 01:05:13;;;;;;;1.85;1.60;;;21.20;44.90;;;;;;5111529;28;20410;-38
2021/04/27 01:07:54;;;;;;;1.67;1.20;;;21.20;44.90;;;;;;5111721;28;20054;-38
2021/04/27 01:10:26;;;;;;;2.42;1.42;;;21.20;44.90;;;;;;5085273;28;20438;-38
2021/04/27 01:13:02;;;;;;;2.20;1.58;;;21.20;44.90;;;;;;5111361;28;20062;-38
2021/04/27 01:15:29;;;;;;;1.63;1.35;;;21.20;44.90;;;;;;5111856;28;20054;-38
2021/04/27 01:17:58;;;;;;;1.33;1.10;;;21.20;44.90;;;;;;5111768;28;20039;-38
2021/04/27 01:20:30;;;;;;;2.03;1.40;;;21.20;44.90;;;;;;5111852;28;20407;-38
2021/04/27 01:23:56;;;;;;;1.90;1.40;;;21.20;45.00;;;;;;5111891;28;20066;-39
2021/04/27 01:26:39;;;;;;;2.08;1.63;;;21.20;44.90;;;;;;5108532;27;20043;-38
2021/04/27 01:29:08;;;;;;;1.98;1.40;;;21.20;44.90;;;;;;5111387;28;20043;-39
2021/04/27 01:31:36;;;;;;;2.72;1.60;;;21.20;44.90;;;;;;5101113;28;20052;-39
2021/04/27 01:34:04;;;;;;;1.88;1.42;;;21.20;45.00;;;;;;5111458;28;20448;-39
2021/04/27 01:36:34;;;;;;;2.10;1.50;;;21.20;44.90;;;;;;5109839;28;20046;-38
2021/04/27 01:39:01;;;;;;;2.22;1.55;;;21.20;44.90;;;;;;5112097;27;20047;-38
2021/04/27 01:41:28;;;;;;;1.75;1.40;;;21.20;45.00;;;;;;5111805;28;20044;-38
2021/04/27 01:43:55;;;;;;;1.63;1.27;;;21.20;44.90;;;;;;5111575;28;20494;-38
2021/04/27 01:46:23;;;;;;;3.40;1.95;;;21.20;44.90;;;;;;5111233;28;20051;-38
2021/04/27 01:48:52;;;;;;;1.52;1.38;;;21.20;44.90;;;;;;5111858;27;20043;-39
2021/04/27 01:51:22;;;;;;;1.55;1.35;;;21.20;44.90;;;;;;5111496;28;20052;-38
2021/04/27 01:53:51;;;;;;;1.58;1.35;;;21.20;44.90;;;;;;5112001;27;20047;-39
2021/04/27 01:56:19;;;;;;;2.25;1.58;;;21.20;44.90;;;;;;5110349;28;20047;-38
2021/04/27 01:58:45;;;;;;;1.27;1.13;;;21.20;44.90;;;;;;5111224;28;20445;-38
2021/04/27 02:01:14;;;;;;;1.73;1.42;;;21.10;44.80;;;;;;5083776;28;20043;-38
2021/04/27 02:03:44;;;;;;;1.50;1.40;;;21.10;44.80;;;;;;5111785;27;20097;-38
2021/04/27 02:06:11;;;;;;;1.85;1.40;;;21.10;44.80;;;;;;5110968;28;20039;-38
2021/04/27 02:08:41;;;;;;;1.80;1.40;;;21.10;44.80;;;;;;5100569;27;20724;-38
2021/04/27 02:11:08;;;;;;;2.25;1.48;;;21.20;44.90;;;;;;5100874;28;20507;-39
2021/04/27 02:13:35;;;;;;;1.48;1.38;;;21.20;44.90;;;;;;5110849;28;20055;-39
2021/04/27 02:16:04;;;;;;;2.03;1.75;;;21.10;44.80;;;;;;5110758;28;20465;-40
2021/04/27 02:18:43;;;;;;;2.28;1.52;;;21.10;44.80;;;;;;5110390;28;20040;-38
2021/04/27 02:21:12;;;;;;;2.42;1.40;;;21.10;44.80;;;;;;5110735;28;20047;-39
2021/04/27 02:23:41;;;;;;;2.20;1.35;;;21.10;44.80;;;;;;5110557;28;20051;-39
2021/04/27 02:26:09;;;;;;;1.40;1.10;;;21.10;44.80;;;;;;5100577;28;20049;-39
2021/04/27 02:28:35;;;;;;;2.78;1.20;;;21.10;44.80;;;;;;5110844;28;20048;-39
2021/04/27 02:31:03;;;;;;;1.48;1.30;;;21.10;44.80;;;;;;5110014;28;20074;-39
2021/04/27 02:33:30;;;;;;;1.92;1.30;;;21.10;44.80;;;;;;5110843;28;20065;-39
2021/04/27 02:35:57;;;;;;;1.60;1.45;;;21.10;44.80;;;;;;5110200;28;20055;-38
2021/04/27 02:38:24;;;;;;;2.50;1.33;;;21.10;44.80;;;;;;5110376;28;20441;-38
2021/04/27 02:40:56;;;;;;;1.75;1.52;;;21.10;44.80;;;;;;5100813;28;20491;-39
2021/04/27 02:43:24;;;;;;;1.88;1.50;;;21.10;44.80;;;;;;5110883;28;20044;-38
2021/04/27 02:45:52;;;;;;;1.60;1.15;;;21.10;44.80;;;;;;5110669;28;20044;-39
2021/04/27 02:48:22;;;;;;;2.10;1.50;;;21.10;44.80;;;;;;5115049;27;20453;-40
2021/04/27 02:50:58;;;;;;;1.73;1.30;;;21.10;44.80;;;;;;5114506;28;20076;-39
2021/04/27 02:53:26;;;;;;;1.77;1.38;;;21.10;44.80;;;;;;5114242;28;20502;-38
2021/04/27 02:55:53;;;;;;;1.48;1.27;;;21.10;44.80;;;;;;5104314;28;20252;-38
2021/04/27 02:58:21;;;;;;;1.98;1.42;;;21.10;44.80;;;;;;5114568;27;20044;-39
2021/04/27 03:00:48;;;;;;;1.52;1.25;;;21.10;44.80;;;;;;5114298;27;20608;-39
2021/04/27 03:03:15;;;;;;;1.50;1.38;;;21.10;44.80;;;;;;5114376;28;20376;-38
2021/04/27 03:05:42;;;;;;;1.58;1.48;;;21.10;44.80;;;;;;5114927;27;20096;-38
2021/04/27 03:08:11;;;;;;;2.00;1.55;;;21.10;44.80;;;;;;5114039;27;20051;-38
2021/04/27 03:10:38;;;;;;;1.42;1.30;;;21.10;44.80;;;;;;5114682;28;20050;-38
2021/04/27 03:13:06;;;;;;;2.50;1.33;;;21.10;44.80;;;;;;5114280;27;20067;-38
2021/04/27 03:15:33;;;;;;;1.73;1.30;;;21.10;44.80;;;;;;5114323;28;20478;-39
2021/04/27 03:18:00;;;;;;;1.75;1.30;;;21.10;44.80;;;;;;5113483;28;20054;-38
2021/04/27 03:20:26;;;;;;;2.85;1.35;;;21.10;44.80;;;;;;5114070;28;20491;-38
2021/04/27 03:22:53;;;;;;;2.22;1.50;;;21.10;44.80;;;;;;5113721;28;20071;-38
2021/04/27 03:25:20;;;;;;;1.92;1.45;;;21.10;44.80;;;;;;5114261;28;20471;-37
2021/04/27 03:27:47;;;;;;;1.80;1.20;;;21.10;44.70;;;;;;5113949;27;20051;-37
2021/04/27 03:30:14;;;;;;;1.83;1.55;;;21.10;44.80;;;;;;5113761;28;20040;-38
2021/04/27 03:32:41;;;;;;;1.70;1.40;;;21.10;44.80;;;;;;5113820;28;20054;-38
2021/04/27 03:35:12;;;;;;;1.98;1.33;;;21.10;44.80;;;;;;5114096;28;20047;-38
2021/04/27 03:37:40;;;;;;;1.48;1.30;;;21.10;44.80;;;;;;5113659;28;20044;-37
2021/04/27 03:40:10;;;;;;;1.52;1.30;;;21.10;44.80;;;;;;5104021;28;20043;-38
2021/04/27 03:42:37;;;;;;;1.67;1.40;;;21.10;44.70;;;;;;5114724;28;20043;-38
2021/04/27 03:45:12;;;;;;;1.80;1.60;;;21.10;44.80;;;;;;5113506;28;20039;-38
2021/04/27 03:47:40;;;;;;;1.30;1.17;;;21.10;44.80;;;;;;5112947;28;20062;-38
2021/04/27 03:50:10;;;;;;;2.00;1.27;;;21.10;44.70;;;;;;5114101;27;20418;-37
2021/04/27 03:52:37;;;;;;;1.67;1.30;;;21.10;44.70;;;;;;5113354;28;20048;-37
2021/04/27 03:55:04;;;;;;;1.38;1.23;;;21.10;44.70;;;;;;5114262;27;20054;-38
2021/04/27 03:57:31;;;;;;;1.80;1.20;;;21.10;45.10;;;;;;5103366;28;20048;-37
2021/04/27 03:59:58;;;;;;;1.45;1.35;;;21.10;44.70;;;;;;5112381;28;20434;-37
2021/04/27 04:02:24;;;;;;;1.90;1.40;;;21.10;44.70;;;;;;5114021;27;20518;-38
2021/04/27 04:04:51;;;;;;;1.55;1.33;;;21.10;44.70;;;;;;5113661;28;20445;-38
2021/04/27 04:07:18;;;;;;;2.25;1.42;;;21.10;44.80;;;;;;5112809;28;20376;-37
2021/04/27 04:09:45;;;;;;;1.50;1.25;;;21.10;44.80;;;;;;5114730;27;20048;-37
2021/04/27 04:12:12;;;;;;;1.58;1.40;;;21.10;44.70;;;;;;5113640;27;20052;-37
2021/04/27 04:14:38;;;;;;;1.65;1.25;;;21.10;44.70;;;;;;5113221;27;20051;-38
2021/04/27 04:17:05;;;;;;;1.60;1.15;;;21.10;44.70;;;;;;5113535;27;20055;-38
2021/04/27 04:19:33;;;;;;;1.45;1.17;;;21.10;44.70;;;;;;5112607;28;20134;-37
2021/04/27 04:22:00;;;;;;;1.50;1.10;;;21.10;44.70;;;;;;5113587;27;20048;-37
2021/04/27 04:24:27;;;;;;;2.38;1.60;;;21.10;44.70;;;;;;5112790;27;20055;-37
2021/04/27 04:26:54;;;;;;;2.22;1.30;;;21.10;44.70;;;;;;5113017;28;20070;-37
2021/04/27 04:29:24;;;;;;;2.00;1.52;;;21.10;44.60;;;;;;5112727;28;20503;-37
2021/04/27 04:31:52;;;;;;;1.73;1.45;;;21.10;44.70;;;;;;5112907;28;20043;-37
2021/04/27 04:34:20;;;;;;;1.35;1.15;;;21.10;44.70;;;;;;5112958;28;20047;-38
2021/04/27 04:36:48;;;;;;;1.85;1.50;;;21.10;44.70;;;;;;5112985;28;20067;-38
2021/04/27 04:39:14;;;;;;;1.90;1.40;;;21.10;44.70;;;;;;5112505;28;20050;-37
2021/04/27 04:41:41;;;;;;;1.90;1.58;;;21.10;44.60;;;;;;5113162;27;20048;-38
2021/04/27 04:44:09;;;;;;;1.77;1.50;;;21.10;44.60;;;;;;5112523;27;20453;-37
2021/04/27 04:46:37;;;;;;;1.63;1.50;;;21.10;44.60;;;;;;5112621;27;20082;-38
2021/04/27 04:49:05;;;;;;;2.17;1.45;;;21.10;44.60;;;;;;5112723;28;20092;-37
2021/04/27 04:51:32;;;;;;;2.20;1.50;;;21.10;44.60;;;;;;5111951;28;20043;-38
2021/04/27 04:53:58;;;;;;;1.20;1.10;;;21.10;44.60;;;;;;5112203;27;20065;-38
2021/04/27 04:56:26;;;;;;;1.48;1.38;;;21.10;44.60;;;;;;5112913;27;20043;-37
2021/04/27 04:58:57;;;;;;;2.55;1.50;;;21.10;44.60;;;;;;5102305;28;20049;-38
2021/04/27 05:01:24;;;;;;;2.05;1.33;;;21.10;44.60;;;;;;5112807;28;20048;-37
2021/04/27 05:03:51;;;;;;;1.77;1.30;;;21.10;44.60;;;;;;5112580;27;20057;-37
2021/04/27 05:06:19;;;;;;;1.92;1.20;;;21.10;44.60;;;;;;5112208;28;20078;-37
2021/04/27 05:08:48;;;;;;;2.20;1.30;;;21.10;44.60;;;;;;5111681;27;20051;-37
2021/04/27 05:11:15;;;;;;;1.55;1.30;;;21.10;44.60;;;;;;5112772;27;20075;-38
2021/04/27 05:13:42;;;;;;;2.03;1.40;;;21.10;44.60;;;;;;5110671;28;20059;-38
2021/04/27 05:16:09;;;;;;;1.60;1.25;;;21.10;44.60;;;;;;5111712;28;20047;-38
2021/04/27 05:18:37;;;;;;;1.77;1.40;;;21.10;44.60;;;;;;5111795;28;20047;-38
2021/04/27 05:21:04;;;;;;;1.60;1.30;;;21.10;44.60;;;;;;5111604;27;20043;-38
2021/04/27 05:23:31;;;;;;;1.73;1.30;;;21.10;44.60;;;;;;5111999;28;20136;-38
2021/04/27 05:25:58;;;;;;;2.03;1.33;;;21.10;44.50;;;;;;5110817;28;20131;-39
2021/04/27 05:28:25;;;;;;;1.23;1.13;;;21.10;44.60;;;;;;5111734;28;20077;-38
2021/04/27 05:30:52;;;;;;;2.13;1.40;;;21.10;44.50;;;;;;5111948;28;20059;-38
2021/04/27 05:33:19;;;;;;;1.50;1.10;;;21.10;44.50;;;;;;5112423;28;20513;-40
2021/04/27 05:35:47;;;;;;;1.58;1.20;;;21.10;44.50;;;;;;5111866;28;20590;-38
2021/04/27 05:38:14;;;;;;;1.27;1.13;;;21.10;44.50;;;;;;5110974;28;20046;-38
2021/04/27 05:40:41;;;;;;;1.48;1.25;;;21.10;44.50;;;;;;5111107;28;20043;-39
2021/04/27 05:43:07;;;;;;;1.40;1.30;;;21.10;44.50;;;;;;5111370;27;20043;-38
2021/04/27 05:45:34;;;;;;;1.92;1.48;;;21.10;44.50;;;;;;5110833;28;20048;-38
2021/04/27 05:48:01;;;;;;;1.70;1.50;;;21.10;44.50;;;;;;5111314;28;20047;-39
2021/04/27 05:50:28;;;;;;;2.30;1.55;;;21.10;44.50;;;;;;5110652;28;20102;-40
2021/04/27 05:52:55;;;;;;;1.92;1.40;;;21.10;44.40;;;;;;5111769;28;20058;-42
2021/04/27 05:55:21;;;;;;;1.55;1.25;;;21.10;44.50;;;;;;5111675;28;20055;-39
2021/04/27 05:57:48;;;;;;;1.40;1.30;;;21.10;44.50;;;;;;5110830;28;20380;-39
2021/04/27 06:00:16;;;;;;;1.98;1.20;;;21.10;44.40;;;;;;5111355;28;20044;-38
2021/04/27 06:02:43;;;;;;;2.80;1.17;;;21.10;44.40;;;;;;5110958;28;20410;-38
2021/04/27 06:05:10;;;;;;;1.75;1.48;;;21.10;44.40;;;;;;5101304;28;20051;-39
2021/04/27 06:07:38;;;;;;;1.90;1.30;;;21.10;44.40;;;;;;5110427;28;20047;-38
2021/04/27 06:10:06;;;;;;;1.75;1.50;;;21.10;44.40;;;;;;5112339;28;20047;-40
2021/04/27 06:12:34;;;;;;;1.77;1.40;;;21.10;44.40;;;;;;5110439;28;20396;-39
2021/04/27 06:15:01;;;;;;;1.52;1.17;;;21.10;44.40;;;;;;5110886;28;20175;-38
2021/04/27 06:17:27;;;;;;;2.15;1.10;;;21.10;44.40;;;;;;5110769;28;20047;-39
2021/04/27 06:19:54;;;;;;;1.70;1.38;;;21.10;44.40;;;;;;5110790;28;20446;-38
2021/04/27 06:22:21;;;;;;;1.65;1.30;;;21.10;45.00;;;;;;5110958;28;20082;-38
2021/04/27 06:24:47;;;;;;;2.85;1.58;;;21.10;44.40;;;;;;5111430;28;20052;-38
2021/04/27 06:27:19;;;;;;;1.88;1.40;;;21.10;44.40;;;;;;5108654;28;20043;-40
2021/04/27 06:29:48;;;;;;;1.30;1.20;;;21.10;44.40;;;;;;5111202;28;20056;-40
2021/04/27 06:32:15;;;;;;;1.35;1.25;;;21.10;44.40;;;;;;5110814;28;20058;-40
2021/04/27 06:34:42;;;;;;;1.55;1.30;;;21.10;44.30;;;;;;5110962;28;20047;-39
2021/04/27 06:37:09;;;;;;;1.25;1.10;;;21.10;44.40;;;;;;5110784;28;20133;-40
2021/04/27 06:39:37;;;;;;;2.00;1.15;;;21.10;44.40;;;;;;5110445;28;20396;-40
2021/04/27 06:42:05;;;;;;;1.90;1.25;;;21.10;44.30;;;;;;5110138;28;20039;-39
2021/04/27 06:44:31;;;;;;;1.52;1.27;;;21.20;44.40;;;;;;5111170;28;20085;-42
2021/04/27 06:46:58;;;;;;;1.52;1.38;;;21.10;44.40;;;;;;5108740;28;20129;-39
2021/04/27 06:49:26;;;;;;;1.42;1.33;;;21.10;44.30;;;;;;5110834;28;20051;-40
2021/04/27 06:51:52;;;;;;;1.90;1.27;;;21.20;44.40;;;;;;5101172;28;20051;-39
2021/04/27 06:54:19;;;;;;;1.50;1.15;;;21.20;44.40;;;;;;5111208;28;20419;-39
2021/04/27 06:56:46;;;;;;;2.13;1.52;;;21.20;44.40;;;;;;5111181;28;20434;-38
2021/04/27 06:59:32;;;;;;;1.52;1.30;;;21.10;44.30;;;;;;5110798;28;20055;-41
2021/04/27 07:02:00;;;;;;;1.80;1.30;;;21.20;44.40;;;;;;5110374;28;20451;-41
2021/04/27 07:04:29;;;;;;;1.67;1.23;;;21.20;44.30;;;;;;5110425;28;20520;-39
2021/04/27 07:06:56;;;;;;;2.35;1.50;;;21.20;44.30;;;;;;5110192;28;20051;-41
2021/04/27 07:09:23;;;;;;;1.98;1.40;;;21.20;44.30;;;;;;5098844;28;20108;-39
2021/04/27 07:11:49;;;;;;;1.48;1.30;;;21.20;44.30;;;;;;5110401;28;20100;-40
2021/04/27 07:14:16;;;;;;;1.40;1.20;;;21.20;44.30;;;;;;5109795;28;20071;-43
2021/04/27 07:16:48;;;;;;;1.90;1.42;;;21.20;44.30;;;;;;5110567;28;20142;-37
2021/04/27 07:19:15;;;;;;;1.58;1.10;;;21.20;44.30;;;;;;5099755;28;20044;-38
2021/04/27 07:21:42;;;;;;;1.65;1.20;;;21.20;44.20;;;;;;5111196;28;20118;-39
2021/04/27 07:24:11;;;;;;;2.47;1.50;;;21.20;44.30;;;;;;5110044;28;20243;-38
2021/04/27 07:26:45;;;;;;;1.80;1.27;;;21.20;44.20;;;;;;5110287;28;20043;-38
2021/04/27 07:29:14;;;;;;;1.30;1.17;;;21.20;44.20;;;;;;5100108;28;20059;-39
2021/04/27 07:31:41;;;;;;;1.58;1.10;;;21.20;44.20;;;;;;5109024;28;20098;-40
2021/04/27 07:34:09;;;;;;;1.73;1.40;;;21.20;44.20;;;;;;5110922;28;20514;-42
2021/04/27 07:36:36;;;;;;;2.05;1.35;;;21.20;44.20;;;;;;5113583;28;20047;-39
2021/04/27 07:39:06;;;;;;;1.58;1.13;;;21.20;44.20;;;;;;5113606;27;20047;-38
2021/04/27 07:41:33;;;;;;;1.38;1.15;;;21.20;44.20;;;;;;5113236;28;20052;-38
2021/04/27 07:44:00;;;;;;;1.83;1.10;;;21.20;44.10;;;;;;5113639;28;20407;-39
2021/04/27 07:46:27;;;;;;;2.13;1.30;;;21.20;44.10;;;;;;5113257;27;20039;-39
2021/04/27 07:48:54;;;;;;;2.05;1.45;;;21.30;44.20;;;;;;5113476;28;20380;-39
2021/04/27 07:51:22;;;;;;;1.92;1.30;;;21.20;44.10;;;;;;5103930;28;20524;-39
2021/04/27 07:53:49;;;;;;;1.75;1.42;;;21.30;44.20;;;;;;5113347;27;20044;-39
2021/04/27 07:56:16;;;;;;;1.60;1.30;;;21.30;44.20;;;;;;5116589;27;20048;-38
2021/04/27 07:58:42;;;;;;;1.40;1.30;;;21.30;44.20;;;;;;5131036;27;20448;-38
2021/04/27 08:01:09;;;;;;;1.63;1.20;;;21.30;44.20;;;;;;5131480;27;20050;-38
2021/04/27 08:03:37;;;;;;;2.47;1.50;;;21.30;44.20;;;;;;5116737;27;20047;-38
2021/04/27 08:06:05;;;;;;;1.83;1.52;;;21.30;44.20;;;;;;5115842;27;20055;-39
2021/04/27 08:08:33;;;;;;;2.13;1.50;;;21.30;44.20;;;;;;5113927;28;20135;-39
2021/04/27 08:11:00;;;;;;;1.65;1.20;;;21.30;44.20;;;;;;5117051;27;20408;-39
2021/04/27 08:13:27;;;;;;;1.60;1.40;;;21.30;44.20;;;;;;5131497;27;20395;-40
2021/04/27 08:15:54;;;;;;;2.22;1.55;;;21.30;44.20;;;;;;5117178;27;20054;-39
2021/04/27 08:18:21;;;;;;;2.33;1.60;;;21.30;44.20;;;;;;5115654;27;20702;-42
2021/04/27 08:20:49;;;;;;;3.00;1.50;;;21.30;44.30;;;;;;5115601;27;20067;-39
2021/04/27 08:23:17;;;;;;;1.50;1.20;;;21.30;44.20;;;;;;5103999;27;20460;-38
2021/04/27 08:25:57;;;;;;;1.40;1.20;;;21.30;44.20;;;;;;5125154;27;20449;-39
2021/04/27 08:28:25;;;;;;;1.67;1.35;;;21.30;44.20;;;;;;5114232;28;20525;-39
2021/04/27 08:30:52;;;;;;;3.30;1.30;;;21.30;44.20;;;;;;5115754;27;20044;-39
2021/04/27 08:33:19;;;;;;;2.28;1.30;;;21.30;44.20;;;;;;5114013;28;20040;-37
2021/04/27 08:35:46;;;;;;;1.98;1.50;;;21.30;44.20;;;;;;5120117;27;20046;-38
2021/04/27 08:38:12;;;;;;;2.05;1.45;;;21.30;44.20;;;;;;5109646;28;20092;-38
2021/04/27 08:40:40;;;;;;;2.20;1.30;;;21.30;44.20;;;;;;5116485;27;20063;-38
2021/04/27 08:43:07;;;;;;;2.03;1.63;;;21.30;44.20;;;;;;5116482;27;20497;-38
2021/04/27 08:45:39;;;;;;;1.63;1.20;;;21.30;44.20;;;;;;5116548;27;20093;-38
2021/04/27 08:48:11;;;;;;;1.73;1.38;;;21.40;44.30;;;;;;5116346;27;20043;-39
2021/04/27 08:50:39;;;;;;;2.15;1.50;;;21.40;44.30;;;;;;5114061;28;20050;-41
2021/04/27 08:53:08;;;;;;;2.00;1.55;;;21.40;44.30;;;;;;5097687;27;20052;-38
2021/04/27 08:55:35;;;;;;;1.90;1.33;;;21.40;44.30;;;;;;5096084;28;20051;-38
2021/04/27 08:58:11;;;;;;;1.77;1.30;;;21.40;44.30;;;;;;5132847;27;20079;-38
2021/04/27 09:00:38;;;;;;;2.30;1.30;;;21.40;44.30;;;;;;5114058;27;20044;-38
2021/04/27 09:03:08;;;;;;;2.28;1.33;;;21.40;44.30;;;;;;5131400;27;20406;-37
2021/04/27 09:05:38;;;;;;;1.73;1.20;;;21.40;44.30;;;;;;5113232;28;20075;-40
2021/04/27 09:08:35;;;;;;;1.60;1.20;;;21.40;44.30;;;;;;5111670;28;20085;-38
2021/04/27 09:11:22;;;;;;;1.42;1.30;;;21.40;44.30;;;;;;5112501;28;20055;-38
2021/04/27 09:14:05;;;;;;;1.67;1.45;;;21.40;44.30;;;;;;5111886;28;20101;-38
2021/04/27 09:16:32;;;;;;;1.88;1.23;;;21.40;44.30;;;;;;5112661;28;20047;-38
2021/04/27 09:19:00;;;;;;;2.80;1.27;;;21.40;44.30;;;;;;5111871;28;20052;-38
2021/04/27 09:21:36;;;;;;;2.70;1.77;;;21.40;44.30;;;;;;5112289;27;20046;-38
2021/04/27 09:24:17;;;;;;;1.67;1.25;;;21.40;44.30;;;;;;5110952;28;20047;-38
2021/04/27 09:26:53;;;;;;;1.50;1.40;;;21.40;44.30;;;;;;5110871;28;20126;-40
2021/04/27 09:29:32;;;;;;;1.83;1.38;;;21.40;44.30;;;;;;5112094;27;20048;-41
2021/04/27 09:31:59;;;;;;;2.15;1.40;;;21.40;44.30;;;;;;5101197;28;20470;-40
2021/04/27 09:34:27;;;;;;;1.52;1.40;;;21.40;44.30;;;;;;5111694;28;20218;-39
2021/04/27 09:36:58;;;;;;;1.55;1.33;;;21.40;44.30;;;;;;5112025;28;20051;-40
2021/04/27 09:39:37;;;;;;;2.28;1.50;;;21.40;44.30;;;;;;5111296;28;20496;-38
2021/04/27 09:42:16;;;;;;;1.40;1.27;;;21.40;44.30;;;;;;5110890;28;20051;-38
2021/04/27 09:44:50;;;;;;;1.52;1.30;;;21.40;44.40;;;;;;5111504;28;20097;-39
2021/04/27 09:47:19;;;;;;;1.92;1.50;;;21.40;44.30;;;;;;5111032;28;20046;-40
2021/04/27 09:49:59;;;;;;;1.63;1.27;;;21.40;45.00;;;;;;5110622;28;20050;-37
2021/04/27 09:52:29;;;;;;;1.80;1.40;;;21.50;44.40;;;;;;5110799;28;20040;-38
2021/04/27 09:54:59;;;;;;;1.63;1.20;;;21.50;44.40;;;;;;5111351;28;20402;-38
2021/04/27 09:57:35;;;;;;;1.85;1.50;;;21.50;44.40;;;;;;5110670;27;20039;-40
2021/04/27 10:00:39;;;;;;;1.50;1.10;;;21.50;44.40;;;;;;5111239;28;20039;-37
2021/04/27 10:03:09;;;;;;;2.07;1.33;;;21.50;44.40;;;;;;5110796;28;20487;-38
2021/04/27 10:05:39;;;;;;;2.00;1.30;;;21.50;44.40;;;;;;5111664;28;20039;-37
2021/04/27 10:08:06;;;;;;;1.80;1.38;;;21.50;44.40;;;;;;5110959;28;20051;-38
2021/04/27 10:10:34;;;;;;;2.15;1.48;;;21.50;45.00;;;;;;5111397;28;20415;-41
2021/04/27 10:13:03;;;;;;;1.90;1.30;;;21.50;44.40;;;;;;5110458;28;20083;-37
2021/04/27 10:15:30;;;;;;;2.30;1.50;;;21.50;44.40;;;;;;5110631;28;20054;-38
2021/04/27 10:18:05;;;;;;;3.08;1.40;;;21.50;44.40;;;;;;5110380;28;20139;-40
2021/04/27 10:20:32;;;;;;;1.52;1.30;;;21.50;44.40;;;;;;5110838;28;20047;-38
2021/04/27 10:23:05;;;;;;;1.40;1.20;;;21.50;44.40;;;;;;5110353;28;20097;-38
2021/04/27 10:25:32;;;;;;;1.88;1.55;;;21.50;44.50;;;;;;5110776;28;20040;-40
2021/04/27 10:28:04;;;;;;;2.30;1.52;;;21.50;44.40;;;;;;5111129;27;20050;-38
2021/04/27 10:30:40;;;;;;;3.80;1.35;;;21.50;44.40;;;;;;5110387;28;20130;-38
2021/04/27 10:33:08;;;;;;;1.40;1.30;;;21.50;44.50;;;;;;5110921;28;20066;-37
2021/04/27 10:35:41;;;;;;;2.08;1.27;;;21.50;44.40;;;;;;5110504;28;20093;-38
2021/04/27 10:38:18;;;;;;;1.83;1.40;;;21.50;44.40;;;;;;5110272;28;20043;-38
2021/04/27 10:41:03;;;;;;;2.17;1.38;;;21.50;44.40;;;;;;5110899;28;20059;-39
2021/04/27 10:43:34;;;;;;;1.98;1.40;;;21.50;44.40;;;;;;5111242;28;20088;-38
2021/04/27 10:46:10;;;;;;;2.45;1.40;;;21.50;44.40;;;;;;5110387;28;20144;-38
2021/04/27 10:48:45;;;;;;;2.28;1.30;;;21.50;44.40;;;;;;5110865;28;20044;-38
2021/04/27 10:51:21;;;;;;;1.75;1.20;;;21.60;44.50;;;;;;5111129;28;20396;-38
2021/04/27 10:54:18;;;;;;;1.60;1.25;;;21.50;44.50;;;;;;5111085;28;20838;-38
2021/04/27 10:56:52;;;;;;;2.17;1.42;;;21.50;44.40;;;;;;5110483;28;20047;-38
2021/04/27 10:59:25;;;;;;;1.63;1.40;;;21.60;44.50;;;;;;5110263;28;20040;-38
2021/04/27 11:02:10;;;;;;;2.85;1.67;;;21.60;44.50;;;;;;5134577;27;20056;-38
2021/04/27 11:04:43;;;;;;;2.15;1.30;;;21.60;44.50;;;;;;5110344;28;20129;-38
2021/04/27 11:07:30;;;;;;;2.53;1.40;;;21.50;44.40;;;;;;5109803;28;20073;-38
2021/04/27 11:09:59;;;;;;;1.73;1.33;;;21.60;44.50;;;;;;5115694;27;20039;-38
2021/04/27 11:12:55;;;;;;;1.88;1.40;;;21.60;44.50;;;;;;5113880;28;20055;-38
2021/04/27 11:15:28;;;;;;;1.63;1.23;;;21.60;44.50;;;;;;5114630;28;20491;-38
2021/04/27 11:18:17;;;;;;;1.42;1.23;;;21.60;44.50;;;;;;5114175;28;20052;-38
2021/04/27 11:20:52;;;;;;;2.25;1.17;;;21.60;44.50;;;;;;5113694;28;20489;-38
2021/04/27 11:23:42;;;;;;;1.75;1.25;;;21.60;44.50;;;;;;5114045;28;20043;-38
2021/04/27 11:26:34;;;;;;;1.77;1.30;;;21.60;44.50;;;;;;5114638;28;20052;-38
2021/04/27 11:29:08;;;;;;;2.03;1.42;;;21.60;44.50;;;;;;5114085;28;20132;-38
2021/04/27 11:32:10;;;;;;;1.35;1.20;;;21.60;44.50;;;;;;5114667;28;20054;-41
2021/04/27 11:35:01;;;;;;;1.42;1.20;;;21.60;44.50;;;;;;5114177;28;20101;-38
2021/04/27 11:37:58;;;;;;;2.67;1.40;;;21.60;44.50;;;;;;5114438;27;20058;-38
2021/04/27 11:40:27;;;;;;;1.88;1.30;;;21.60;44.50;;;;;;5113240;28;20047;-38
2021/04/27 11:43:00;;;;;;;1.70;1.30;;;21.60;44.50;;;;;;5113677;27;20044;-38
2021/04/27 11:45:33;;;;;;;1.55;1.08;;;21.60;44.50;;;;;;5114987;27;20050;-40
2021/04/27 11:48:00;;;;;;;2.05;1.48;;;21.60;44.50;;;;;;5113667;28;20096;-38
2021/04/27 11:50:37;;;;;;;3.25;1.40;;;21.60;44.50;;;;;;5114067;28;20096;-38
2021/04/27 11:53:11;;;;;;;2.17;1.60;;;21.60;44.50;;;;;;5104240;28;20054;-38
2021/04/27 11:55:47;;;;;;;1.92;1.40;;;21.60;44.50;;;;;;5113574;28;20051;-39
2021/04/27 11:58:35;;;;;;;1.80;1.20;;;21.60;45.10;;;;;;5112890;28;20051;-38
2021/04/27 12:01:07;;;;;;;2.63;1.50;;;21.60;44.50;;;;;;5114008;28;20046;-38
2021/04/27 12:03:39;;;;;;;1.63;1.08;;;21.60;44.50;;;;;;5113989;28;20426;-38
2021/04/27 12:06:10;;;;;;;1.50;1.40;;;21.60;44.50;;;;;;5113700;28;20039;-38
2021/04/27 12:08:39;;;;;;;1.40;1.20;;;21.60;44.50;;;;;;5112806;28;20062;-38
2021/04/27 12:11:15;;;;;;;2.08;1.02;;;21.60;44.50;;;;;;5113362;28;20043;-38
2021/04/27 12:13:48;;;;;;;1.92;1.50;;;21.60;45.10;;;;;;5112917;28;20059;-38
2021/04/27 12:16:18;;;;;;;2.33;1.60;;;21.60;44.40;;;;;;5113236;28;20040;-38
2021/04/27 12:19:01;;;;;;;1.70;1.30;;;21.60;44.50;;;;;;5112821;28;20432;-38
2021/04/27 12:21:37;;;;;;;1.75;1.27;;;21.60;44.50;;;;;;5113594;27;20062;-38
2021/04/27 12:24:08;;;;;;;1.77;1.30;;;21.60;44.40;;;;;;5113072;28;20491;-37
2021/04/27 12:26:37;;;;;;;1.60;1.17;;;21.70;44.50;;;;;;5113230;28;20048;-40
2021/04/27 12:29:05;;;;;;;1.70;1.20;;;21.70;44.50;;;;;;5111775;28;20051;-38
2021/04/27 12:31:33;;;;;;;1.35;1.10;;;21.70;44.50;;;;;;5112929;28;20043;-38
2021/04/27 12:34:04;;;;;;;2.08;1.30;;;21.70;44.50;;;;;;5113197;27;20047;-41
2021/04/27 12:36:47;;;;;;;1.77;1.20;;;21.70;44.50;;;;;;5113238;28;20058;-39
2021/04/27 12:39:23;;;;;;;2.35;1.55;;;21.70;44.50;;;;;;5112766;28;20054;-39
2021/04/27 12:41:52;;;;;;;1.70;1.30;;;21.70;44.50;;;;;;5112586;28;20044;-38
2021/04/27 12:44:36;;;;;;;2.08;1.38;;;21.70;44.50;;;;;;5113013;28;20158;-39
2021/04/27 12:47:19;;;;;;;1.73;1.20;;;21.70;44.50;;;;;;5112945;28;20048;-39
2021/04/27 12:50:00;;;;;;;1.92;1.25;;;21.70;44.50;;;;;;5112662;28;20527;-38
2021/04/27 12:52:28;;;;;;;2.20;1.50;;;21.70;44.50;;;;;;5112825;28;20047;-39
2021/04/27 12:55:07;;;;;;;1.83;1.30;;;21.70;44.50;;;;;;5112190;28;20048;-38
2021/04/27 12:57:34;;;;;;;2.47;1.17;;;21.70;44.50;;;;;;5112094;27;20074;-39
2021/04/27 13:00:13;;;;;;;1.80;1.30;;;21.70;44.50;;;;;;5112523;28;20039;-38
2021/04/27 13:02:40;;;;;;;1.65;1.35;;;21.70;44.50;;;;;;5111876;27;20525;-38
2021/04/27 13:05:10;;;;;;;1.33;1.17;;;21.70;44.50;;;;;;5112148;28;20066;-40